Time;durP1;ratioP1;P1;durP2;ratioP2;P2;SDS_P1;SDS_P2;PMS_P1;PMS_P2;Temp;Humidity;BMP_temperature;BMP_pressure;BME280_temperature;BME280_humidity;BME280_pressure;Samples;Min_cycle;Max_cycle;Signal;HPM_P1;HPM_P2
2021/07/03 00:00:27;;;;;;;0.63;0.35;;;21.80;57.90;;;;;;5014192;28;20073;-84
2021/07/03 00:02:53;;;;;;;2.58;1.02;;;21.70;57.90;;;;;;5014985;28;20014;-85
2021/07/03 00:05:19;;;;;;;1999.90;999.90;;;21.70;58.00;;;;;;5030505;28;20053;-83
2021/07/03 00:07:45;;;;;;;1999.90;999.90;;;21.70;58.00;;;;;;5030413;28;20022;-84
2021/07/03 00:10:11;;;;;;;1999.90;999.90;;;21.70;58.10;;;;;;5030345;28;20033;-84
2021/07/03 00:12:37;;;;;;;263.80;23.48;;;21.60;58.20;;;;;;5014529;28;20475;-85
2021/07/03 00:15:06;;;;;;;458.13;134.90;;;21.60;58.20;;;;;;5029809;28;20029;-84
2021/07/03 00:17:32;;;;;;;0.55;0.47;;;21.50;58.30;;;;;;5029784;28;20032;-85
2021/07/03 00:19:58;;;;;;;8.70;8.00;;;21.60;58.40;;;;;;5030296;28;20406;-83
2021/07/03 00:22:24;;;;;;;0.08;0.00;;;21.50;58.40;;;;;;5013394;28;22293;-85
2021/07/03 00:24:50;;;;;;;0.22;0.10;;;21.40;58.50;;;;;;5015203;28;20419;-84
2021/07/03 00:27:16;;;;;;;0.82;0.50;;;21.50;58.60;;;;;;5013853;28;20041;-84
2021/07/03 00:29:42;;;;;;;2.08;0.47;;;21.40;58.60;;;;;;5029466;28;20397;-85
2021/07/03 00:32:08;;;;;;;0.25;0.13;;;21.40;58.70;;;;;;5028067;28;20029;-85
2021/07/03 00:34:34;;;;;;;4.82;0.10;;;21.40;58.80;;;;;;5012243;28;20042;-85
2021/07/03 00:37:01;;;;;;;0.25;0.00;;;21.30;58.80;;;;;;5028568;28;20022;-84
2021/07/03 00:39:27;;;;;;;0.52;0.30;;;21.30;58.90;;;;;;5012843;28;20026;-84
2021/07/03 00:41:53;;;;;;;0.22;0.17;;;21.30;58.90;;;;;;5013505;28;20037;-85
2021/07/03 00:44:30;;;;;;;0.47;0.17;;;21.30;59.60;;;;;;5013295;28;20060;-84
2021/07/03 00:46:56;;;;;;;0.10;0.00;;;21.30;59.00;;;;;;5011376;28;20476;-84
2021/07/03 00:49:22;;;;;;;0.10;0.10;;;21.30;59.00;;;;;;5011389;28;20053;-84
2021/07/03 00:51:48;;;;;;;0.63;0.20;;;21.30;59.10;;;;;;5012869;28;20034;-83
2021/07/03 00:54:15;;;;;;;3.15;0.90;;;21.30;59.20;;;;;;5028411;28;20046;-84
2021/07/03 00:56:41;;;;;;;55.38;38.72;;;21.30;59.20;;;;;;5028554;28;20026;-84
2021/07/03 00:59:07;;;;;;;0.00;0.00;;;21.30;59.30;;;;;;5028637;28;20392;-84
2021/07/03 01:01:33;;;;;;;0.00;0.00;;;21.30;59.30;;;;;;5027663;28;20030;-84
2021/07/03 01:03:59;;;;;;;0.03;0.03;;;21.20;59.30;;;;;;5028483;28;20022;-86
2021/07/03 01:06:25;;;;;;;0.47;0.20;;;21.20;60.00;;;;;;5012244;28;20373;-84
2021/07/03 01:08:51;;;;;;;0.68;0.20;;;21.20;59.40;;;;;;5028234;28;20033;-84
2021/07/03 01:11:25;;;;;;;0.00;0.00;;;21.20;59.40;;;;;;5028375;28;20038;-84
2021/07/03 01:13:52;;;;;;;0.70;0.25;;;21.20;59.40;;;;;;5011555;28;20030;-84
2021/07/03 01:16:18;;;;;;;0.43;0.00;;;21.20;59.40;;;;;;5027366;28;20101;-85
2021/07/03 01:18:44;;;;;;;0.98;0.17;;;21.20;59.50;;;;;;4992885;28;20042;-84
2021/07/03 01:21:10;;;;;;;0.60;0.20;;;21.20;59.50;;;;;;5006840;28;20026;-85
2021/07/03 01:23:36;;;;;;;1124.95;552.22;;;21.20;59.60;;;;;;5012867;28;20029;-84
2021/07/03 01:26:02;;;;;;;115.25;28.02;;;21.20;59.60;;;;;;5011393;28;20042;-84
2021/07/03 01:28:28;;;;;;;185.93;71.88;;;21.20;59.70;;;;;;5012882;28;20025;-85
2021/07/03 01:30:54;;;;;;;244.27;123.60;;;21.20;59.70;;;;;;4985085;28;1240135;-85
2021/07/03 01:33:21;;;;;;;36.10;8.10;;;21.20;59.70;;;;;;4992244;28;20396;-84
2021/07/03 01:35:47;;;;;;;0.63;0.13;;;21.10;59.80;;;;;;5025281;28;20404;-83
2021/07/03 01:38:17;;;;;;;0.65;0.30;;;21.10;59.80;;;;;;5012049;28;20435;-84
2021/07/03 01:40:44;;;;;;;0.55;0.10;;;21.10;59.90;;;;;;5012343;28;20034;-84
2021/07/03 01:43:11;;;;;;;0.38;0.13;;;21.10;59.90;;;;;;5028864;28;20497;-84
2021/07/03 01:45:37;;;;;;;0.03;0.00;;;21.10;60.00;;;;;;5012017;28;20030;-85
2021/07/03 01:48:03;;;;;;;1.88;0.63;;;21.10;60.10;;;;;;5028659;28;20026;-85
2021/07/03 01:50:29;;;;;;;1.45;0.25;;;21.10;60.10;;;;;;5029554;28;20473;-83
2021/07/03 01:52:55;;;;;;;0.00;0.00;;;21.00;60.10;;;;;;5030932;28;20033;-85
2021/07/03 01:55:21;;;;;;;0.28;0.10;;;21.00;60.20;;;;;;5013866;28;20033;-83
2021/07/03 01:57:47;;;;;;;1.35;0.10;;;21.00;60.20;;;;;;5029166;28;20041;-83
2021/07/03 02:00:14;;;;;;;0.20;0.10;;;21.00;60.30;;;;;;5007858;28;20039;-83
2021/07/03 02:02:40;;;;;;;0.25;0.20;;;21.00;60.40;;;;;;4987840;28;20041;-84
2021/07/03 02:05:07;;;;;;;0.20;0.10;;;21.00;60.40;;;;;;5022044;28;20033;-84
2021/07/03 02:07:33;;;;;;;0.25;0.05;;;20.90;60.40;;;;;;5002651;28;20038;-84
2021/07/03 02:10:00;;;;;;;1.25;0.10;;;20.90;60.50;;;;;;5026064;28;20412;-83
2021/07/03 02:12:26;;;;;;;0.43;0.03;;;20.90;60.50;;;;;;5009878;28;20025;-84
2021/07/03 02:14:52;;;;;;;0.40;0.30;;;20.90;60.50;;;;;;5016201;28;20038;-84
2021/07/03 02:17:18;;;;;;;0.10;0.05;;;20.90;60.50;;;;;;5011402;28;20037;-84
2021/07/03 02:19:44;;;;;;;0.10;0.00;;;20.90;60.60;;;;;;5010017;28;20477;-84
2021/07/03 02:22:11;;;;;;;0.55;0.10;;;20.90;60.60;;;;;;5024957;28;20149;-85
2021/07/03 02:24:37;;;;;;;0.10;0.03;;;20.90;60.60;;;;;;4993972;28;20030;-82
2021/07/03 02:27:03;;;;;;;0.60;0.10;;;20.90;60.70;;;;;;5002317;28;20029;-84
2021/07/03 02:29:29;;;;;;;0.08;0.00;;;20.90;60.70;;;;;;5003333;28;20065;-83
2021/07/03 02:31:55;;;;;;;0.88;0.17;;;20.90;60.70;;;;;;5018431;28;20030;-85
2021/07/03 02:34:21;;;;;;;2.28;0.10;;;20.90;60.80;;;;;;5007354;28;20400;-82
2021/07/03 02:36:48;;;;;;;0.00;0.00;;;20.90;60.80;;;;;;5023169;28;20018;-84
2021/07/03 02:39:14;;;;;;;0.82;0.22;;;20.80;60.80;;;;;;5009675;28;20503;-85
2021/07/03 02:41:40;;;;;;;131.68;74.40;;;20.90;60.90;;;;;;5027414;28;20041;-86
2021/07/03 02:44:06;;;;;;;0.32;0.22;;;20.90;60.90;;;;;;5010965;28;20034;-86
2021/07/03 02:46:32;;;;;;;1.73;1.17;;;20.90;61.00;;;;;;5011992;28;20046;-85
2021/07/03 02:48:58;;;;;;;0.20;0.15;;;20.90;61.10;;;;;;5012424;28;20032;-85
2021/07/03 02:51:24;;;;;;;284.30;157.85;;;20.90;61.10;;;;;;5011658;28;20033;-85
2021/07/03 02:53:50;;;;;;;1999.90;999.90;;;20.80;61.10;;;;;;5027410;28;20033;-85
2021/07/03 02:56:16;;;;;;;1999.90;999.90;;;20.80;61.30;;;;;;5026975;28;20413;-84
2021/07/03 02:58:43;;;;;;;1999.90;999.90;;;20.80;61.40;;;;;;5010734;28;20045;-85
2021/07/03 03:01:09;;;;;;;1999.90;999.90;;;20.80;61.50;;;;;;5026674;28;20030;-85
2021/07/03 03:03:35;;;;;;;1999.90;999.90;;;20.80;61.60;;;;;;5011418;28;20041;-85
2021/07/03 03:06:01;;;;;;;1999.90;999.90;;;20.80;61.70;;;;;;5012220;28;20405;-85
2021/07/03 03:08:27;;;;;;;1999.90;999.90;;;20.70;61.70;;;;;;5007382;28;20039;-85
2021/07/03 03:10:53;;;;;;;1999.90;999.90;;;20.80;61.80;;;;;;5000664;28;20034;-84
2021/07/03 03:13:19;;;;;;;1999.90;999.90;;;20.70;61.80;;;;;;5011089;28;20038;-85
2021/07/03 03:15:45;;;;;;;1999.90;999.90;;;20.70;61.90;;;;;;5012066;28;20039;-85
2021/07/03 03:18:11;;;;;;;1999.90;999.90;;;20.70;62.00;;;;;;5027044;28;20033;-85
2021/07/03 03:20:37;;;;;;;1999.90;999.90;;;20.70;62.20;;;;;;5027174;28;20393;-85
2021/07/03 03:23:04;;;;;;;1999.90;999.90;;;20.70;62.30;;;;;;5010631;28;20396;-85
2021/07/03 03:25:30;;;;;;;1999.90;999.90;;;20.60;62.30;;;;;;5011419;28;20047;-86
2021/07/03 03:27:56;;;;;;;1999.90;999.90;;;20.60;62.40;;;;;;5027405;28;20706;-85
2021/07/03 03:30:22;;;;;;;1999.90;999.90;;;20.60;62.50;;;;;;5010510;28;20046;-84
2021/07/03 03:32:48;;;;;;;1999.90;999.90;;;20.60;62.50;;;;;;5027327;28;20022;-84
2021/07/03 03:35:15;;;;;;;1999.90;999.90;;;20.60;62.50;;;;;;5027086;28;20026;-85
2021/07/03 03:37:41;;;;;;;1999.90;999.90;;;20.60;62.70;;;;;;5027137;28;20728;-84
2021/07/03 03:40:07;;;;;;;53.70;18.55;;;20.60;62.70;;;;;;5011580;28;20049;-86
2021/07/03 03:42:33;;;;;;;1.08;0.20;;;20.60;62.80;;;;;;5011126;28;20469;-85
2021/07/03 03:45:00;;;;;;;0.73;0.30;;;20.50;62.90;;;;;;5026852;28;20034;-83
2021/07/03 03:47:26;;;;;;;0.60;0.20;;;20.50;63.00;;;;;;5011248;28;20493;-84
2021/07/03 03:49:52;;;;;;;0.30;0.10;;;20.50;63.10;;;;;;5010810;28;20041;-85
2021/07/03 03:52:18;;;;;;;0.40;0.17;;;20.50;63.20;;;;;;5027045;28;20037;-86
2021/07/03 03:54:44;;;;;;;0.10;0.10;;;20.50;63.20;;;;;;4991269;28;20035;-85
2021/07/03 03:57:23;;;;;;;0.60;0.05;;;20.50;63.30;;;;;;5009760;28;20365;-86
2021/07/03 03:59:52;;;;;;;0.50;0.10;;;20.50;63.40;;;;;;5006984;28;20034;-85
2021/07/03 04:02:19;;;;;;;1.05;0.40;;;20.40;63.40;;;;;;5018715;28;20030;-85
2021/07/03 04:04:45;;;;;;;0.32;0.32;;;20.40;63.40;;;;;;5026900;28;20033;-84
2021/07/03 04:07:11;;;;;;;0.10;0.10;;;20.40;63.50;;;;;;5027022;28;20397;-84
2021/07/03 04:09:38;;;;;;;1.50;0.35;;;20.40;63.60;;;;;;5010531;28;20038;-85
2021/07/03 04:12:04;;;;;;;0.80;0.17;;;20.40;63.70;;;;;;5027327;28;20025;-84
2021/07/03 04:14:30;;;;;;;0.10;0.05;;;20.40;63.70;;;;;;5030423;28;20034;-85
2021/07/03 04:16:56;;;;;;;0.98;0.35;;;20.40;63.80;;;;;;5029928;28;20022;-84
2021/07/03 04:19:22;;;;;;;0.85;0.20;;;20.40;63.90;;;;;;5030628;28;20026;-85
2021/07/03 04:21:48;;;;;;;0.45;0.28;;;20.40;63.90;;;;;;5030993;28;20034;-84
2021/07/03 04:24:14;;;;;;;1.02;0.43;;;20.40;63.90;;;;;;5009809;28;20046;-85
2021/07/03 04:26:40;;;;;;;0.55;0.10;;;20.40;64.00;;;;;;5010318;28;20033;-84
2021/07/03 04:29:06;;;;;;;0.88;0.47;;;20.30;64.00;;;;;;5030017;28;20064;-85
2021/07/03 04:31:33;;;;;;;0.55;0.35;;;20.30;64.00;;;;;;5014263;28;20416;-84
2021/07/03 04:33:59;;;;;;;0.10;0.10;;;20.30;64.20;;;;;;5014998;28;20045;-85
2021/07/03 04:36:25;;;;;;;3.65;0.30;;;20.30;64.30;;;;;;5015205;28;20476;-84
2021/07/03 04:38:51;;;;;;;1.23;0.20;;;20.30;64.30;;;;;;5009761;28;20034;-84
2021/07/03 04:41:17;;;;;;;1.00;0.57;;;20.30;64.40;;;;;;5022316;28;20034;-85
2021/07/03 04:43:43;;;;;;;1.10;0.15;;;20.20;64.40;;;;;;5030045;28;20036;-85
2021/07/03 04:46:09;;;;;;;0.32;0.10;;;20.20;64.50;;;;;;5014031;28;20045;-84
2021/07/03 04:48:35;;;;;;;0.47;0.10;;;20.20;64.50;;;;;;5014055;28;20026;-84
2021/07/03 04:51:01;;;;;;;0.00;0.00;;;20.20;64.60;;;;;;5029727;28;20022;-83
2021/07/03 04:53:27;;;;;;;0.30;0.17;;;20.20;64.60;;;;;;5029236;28;20037;-84
2021/07/03 04:55:53;;;;;;;0.32;0.00;;;20.20;64.60;;;;;;5029739;28;20465;-83
2021/07/03 04:58:19;;;;;;;1.15;0.28;;;20.20;64.60;;;;;;5014383;28;20037;-84
2021/07/03 05:00:45;;;;;;;0.45;0.30;;;20.20;64.70;;;;;;5013200;28;20119;-84
2021/07/03 05:03:12;;;;;;;1.52;0.20;;;20.20;64.80;;;;;;5029423;28;20045;-84
2021/07/03 05:05:38;;;;;;;0.20;0.20;;;20.20;64.80;;;;;;5014014;28;20037;-85
2021/07/03 05:08:04;;;;;;;0.32;0.20;;;20.20;64.80;;;;;;5029014;28;20037;-84
2021/07/03 05:10:30;;;;;;;0.90;0.38;;;20.20;64.90;;;;;;5029527;28;20041;-84
2021/07/03 05:12:56;;;;;;;0.47;0.22;;;20.20;65.00;;;;;;5029618;28;20053;-84
2021/07/03 05:15:23;;;;;;;0.63;0.30;;;20.20;65.00;;;;;;5012846;28;20465;-84
2021/07/03 05:17:49;;;;;;;0.38;0.15;;;20.20;65.00;;;;;;5029179;28;20465;-85
2021/07/03 05:20:17;;;;;;;0.75;0.20;;;20.20;65.10;;;;;;5013793;28;20022;-85
2021/07/03 05:22:43;;;;;;;0.65;0.30;;;20.20;65.10;;;;;;5028736;28;20037;-84
2021/07/03 05:25:10;;;;;;;0.43;0.25;;;20.20;65.20;;;;;;5027842;28;20025;-84
2021/07/03 05:27:36;;;;;;;1.23;0.10;;;20.20;65.20;;;;;;5014418;28;20038;-83
2021/07/03 05:30:04;;;;;;;1.17;0.47;;;20.20;65.30;;;;;;5028980;28;20033;-87
2021/07/03 05:32:30;;;;;;;0.45;0.25;;;20.20;65.30;;;;;;5028153;28;20038;-87
2021/07/03 05:34:56;;;;;;;0.17;0.15;;;20.20;65.40;;;;;;5013633;28;20395;-84
2021/07/03 05:37:22;;;;;;;3.70;0.30;;;20.10;65.40;;;;;;5013435;28;20033;-84
2021/07/03 05:39:48;;;;;;;0.10;0.10;;;20.10;65.50;;;;;;5029494;28;20096;-85
2021/07/03 05:42:14;;;;;;;1.13;0.25;;;20.10;65.50;;;;;;5008634;28;20046;-84
2021/07/03 05:44:40;;;;;;;1.23;0.32;;;20.10;65.60;;;;;;5007274;28;20468;-85
2021/07/03 05:47:06;;;;;;;1.42;0.05;;;20.10;65.60;;;;;;5012953;28;20050;-84
2021/07/03 05:49:33;;;;;;;0.10;0.00;;;20.10;65.60;;;;;;5028659;28;20417;-82
2021/07/03 05:51:59;;;;;;;0.22;0.13;;;20.20;65.70;;;;;;5011877;28;20034;-83
2021/07/03 05:54:28;;;;;;;0.13;0.10;;;20.20;65.70;;;;;;5012497;28;20026;-84
2021/07/03 05:56:54;;;;;;;0.75;0.20;;;20.20;65.60;;;;;;5028202;28;20033;-85
2021/07/03 05:59:20;;;;;;;0.45;0.20;;;20.20;65.60;;;;;;5013155;28;20033;-84
2021/07/03 06:01:46;;;;;;;0.73;0.30;;;20.20;65.60;;;;;;5012766;28;20044;-85
2021/07/03 06:04:12;;;;;;;1.75;0.57;;;20.30;65.70;;;;;;5012001;28;20030;-83
2021/07/03 06:06:38;;;;;;;0.80;0.22;;;20.30;65.70;;;;;;5012177;28;20034;-85
2021/07/03 06:09:04;;;;;;;0.30;0.20;;;20.30;65.70;;;;;;5028299;28;20393;-84
2021/07/03 06:11:30;;;;;;;1.02;0.20;;;20.30;65.70;;;;;;5012889;28;20033;-84
2021/07/03 06:13:57;;;;;;;0.30;0.10;;;20.30;65.80;;;;;;5011831;28;20489;-84
2021/07/03 06:16:23;;;;;;;1.48;0.70;;;20.30;65.80;;;;;;5027884;28;20041;-85
2021/07/03 06:18:49;;;;;;;1.27;0.30;;;20.30;65.80;;;;;;5012090;28;20049;-84
2021/07/03 06:21:15;;;;;;;0.75;0.30;;;20.40;65.90;;;;;;5008094;28;20034;-85
2021/07/03 06:23:41;;;;;;;4.22;0.82;;;20.40;65.90;;;;;;5023536;28;20396;-86
2021/07/03 06:26:07;;;;;;;0.15;0.05;;;20.40;65.90;;;;;;5012809;28;20052;-86
2021/07/03 06:28:33;;;;;;;0.38;0.25;;;20.40;65.90;;;;;;5028134;28;20392;-85
2021/07/03 06:30:59;;;;;;;1.92;0.60;;;20.40;66.00;;;;;;5027421;28;20046;-84
2021/07/03 06:33:26;;;;;;;0.00;0.00;;;20.30;66.00;;;;;;5011827;28;20036;-86
2021/07/03 06:35:52;;;;;;;1.17;0.30;;;20.30;66.10;;;;;;5027124;28;20518;-85
2021/07/03 06:38:18;;;;;;;1.75;0.28;;;20.40;66.20;;;;;;5027758;28;20034;-85
2021/07/03 06:40:44;;;;;;;0.63;0.22;;;20.40;66.10;;;;;;5012746;28;20402;-85
2021/07/03 06:43:10;;;;;;;0.35;0.08;;;20.40;66.10;;;;;;5027826;28;20034;-83
2021/07/03 06:45:36;;;;;;;1.88;0.20;;;20.40;66.10;;;;;;5011133;28;20034;-85
2021/07/03 06:48:02;;;;;;;0.85;0.20;;;20.40;66.90;;;;;;5012414;28;20025;-85
2021/07/03 06:50:28;;;;;;;1.77;0.10;;;20.40;66.10;;;;;;5027330;28;20029;-85
2021/07/03 06:52:54;;;;;;;9.15;8.60;;;20.50;66.20;;;;;;5027915;28;20503;-85
2021/07/03 06:55:21;;;;;;;0.95;0.45;;;20.50;66.20;;;;;;5012484;28;20029;-85
2021/07/03 06:57:47;;;;;;;0.20;0.17;;;20.50;66.30;;;;;;5011770;28;20029;-85
2021/07/03 07:00:13;;;;;;;0.30;0.20;;;20.50;66.30;;;;;;5026896;28;20037;-86
2021/07/03 07:02:39;;;;;;;0.17;0.13;;;20.50;66.30;;;;;;5011745;28;20037;-87
2021/07/03 07:05:09;;;;;;;0.52;0.40;;;20.50;66.30;;;;;;5010956;28;20037;-85
2021/07/03 07:07:35;;;;;;;0.20;0.10;;;20.60;66.40;;;;;;5012185;28;20400;-85
2021/07/03 07:10:04;;;;;;;0.00;0.00;;;20.50;66.60;;;;;;5011568;28;20048;-86
2021/07/03 07:12:30;;;;;;;0.90;0.25;;;20.60;66.40;;;;;;5011319;28;20037;-86
2021/07/03 07:14:56;;;;;;;1.88;0.32;;;20.60;66.40;;;;;;5027399;28;20022;-85
2021/07/03 07:17:23;;;;;;;0.40;0.17;;;20.60;66.30;;;;;;5026627;28;20041;-85
2021/07/03 07:19:49;;;;;;;0.30;0.10;;;20.70;66.40;;;;;;5027273;28;20037;-85
2021/07/03 07:22:15;;;;;;;0.28;0.17;;;20.70;66.40;;;;;;5027246;28;20376;-85
2021/07/03 07:24:41;;;;;;;0.00;0.00;;;20.70;66.30;;;;;;5011553;28;20037;-85
2021/07/03 07:27:08;;;;;;;4.78;0.47;;;20.70;66.30;;;;;;5011125;28;20050;-85
2021/07/03 07:29:34;;;;;;;0.08;0.00;;;20.70;66.20;;;;;;5011828;28;20033;-85
2021/07/03 07:32:00;;;;;;;0.82;0.40;;;20.80;66.20;;;;;;5026676;28;20030;-85
2021/07/03 07:34:26;;;;;;;0.25;0.20;;;20.80;66.20;;;;;;5027169;28;20036;-85
2021/07/03 07:36:53;;;;;;;2.22;0.40;;;20.80;66.10;;;;;;5010839;28;20034;-86
2021/07/03 07:39:19;;;;;;;0.90;0.30;;;20.90;66.20;;;;;;5010953;28;20033;-85
2021/07/03 07:41:45;;;;;;;0.57;0.35;;;20.90;66.00;;;;;;5011706;28;20026;-85
2021/07/03 07:44:11;;;;;;;0.05;0.05;;;21.00;66.10;;;;;;5010763;28;20061;-85
2021/07/03 07:46:37;;;;;;;1.75;1.10;;;21.00;66.10;;;;;;5011126;28;20049;-85
2021/07/03 07:49:05;;;;;;;0.43;0.30;;;21.00;66.10;;;;;;5015615;28;20461;-85
2021/07/03 07:51:31;;;;;;;0.30;0.30;;;21.10;66.00;;;;;;5014854;28;20393;-86
2021/07/03 07:53:57;;;;;;;0.55;0.20;;;21.10;66.00;;;;;;5014415;28;20480;-85
2021/07/03 07:56:23;;;;;;;0.00;0.00;;;21.10;66.00;;;;;;5030881;28;20034;-86
2021/07/03 07:58:49;;;;;;;0.57;0.30;;;21.10;66.00;;;;;;5030914;28;20022;-85
2021/07/03 08:01:15;;;;;;;0.50;0.25;;;21.10;66.10;;;;;;5014657;28;20041;-86
2021/07/03 08:03:42;;;;;;;0.52;0.40;;;21.10;66.20;;;;;;5015852;28;20030;-86
2021/07/03 08:06:08;;;;;;;0.95;0.30;;;21.10;66.30;;;;;;5015111;28;20046;-86
2021/07/03 08:08:34;;;;;;;0.00;0.00;;;21.10;66.40;;;;;;5030548;28;20384;-85
2021/07/03 08:11:00;;;;;;;0.57;0.20;;;21.10;66.30;;;;;;5014036;28;20413;-85
2021/07/03 08:13:26;;;;;;;2.20;0.73;;;21.10;66.30;;;;;;5015353;28;20028;-84
2021/07/03 08:15:52;;;;;;;0.93;0.50;;;21.10;66.40;;;;;;5013477;28;20464;-84
2021/07/03 08:18:20;;;;;;;0.00;0.00;;;21.10;66.40;;;;;;4994860;28;20042;-86
2021/07/03 08:20:47;;;;;;;2.10;0.57;;;21.10;66.50;;;;;;5011379;28;20022;-84
2021/07/03 08:23:14;;;;;;;0.73;0.30;;;21.10;66.60;;;;;;5030374;28;20476;-84
2021/07/03 08:25:40;;;;;;;0.30;0.30;;;21.20;66.50;;;;;;5029984;28;20030;-85
2021/07/03 08:28:06;;;;;;;0.70;0.43;;;21.30;66.50;;;;;;5030361;28;20033;-78
2021/07/03 08:30:34;;;;;;;43.17;6.18;;;21.40;66.40;;;;;;4993911;28;20042;-86
2021/07/03 08:33:00;;;;;;;5.82;4.47;;;21.50;66.30;;;;;;5011391;28;20026;-85
2021/07/03 08:35:26;;;;;;;0.38;0.08;;;21.60;66.10;;;;;;5010196;28;20045;-85
2021/07/03 08:37:52;;;;;;;0.98;0.10;;;21.70;66.10;;;;;;5018710;28;20022;-85
2021/07/03 08:40:18;;;;;;;0.20;0.20;;;21.80;66.00;;;;;;5013428;28;20385;-86
2021/07/03 08:42:45;;;;;;;0.00;0.00;;;21.80;65.90;;;;;;5015384;28;20018;-85
2021/07/03 08:45:11;;;;;;;0.10;0.10;;;21.80;65.90;;;;;;5009138;28;20042;-83
2021/07/03 08:47:39;;;;;;;0.40;0.30;;;21.80;66.00;;;;;;5024522;28;20081;-86
2021/07/03 08:50:06;;;;;;;0.00;0.00;;;21.80;66.10;;;;;;5029721;28;20026;-85
2021/07/03 08:52:32;;;;;;;0.43;0.28;;;21.80;66.20;;;;;;5029890;28;20503;-85
2021/07/03 08:55:01;;;;;;;0.00;0.00;;;21.80;66.20;;;;;;5029732;28;20400;-84
2021/07/03 08:57:27;;;;;;;0.00;0.00;;;21.90;66.30;;;;;;5014889;28;20038;-84
2021/07/03 08:59:54;;;;;;;0.05;0.00;;;21.90;66.30;;;;;;5013791;28;20026;-86
2021/07/03 09:02:30;;;;;;;0.10;0.00;;;21.80;66.40;;;;;;5029259;28;20045;-86
2021/07/03 09:04:56;;;;;;;0.10;0.10;;;21.80;66.50;;;;;;5028235;28;20013;-86
2021/07/03 09:07:22;;;;;;;0.63;0.38;;;21.70;66.60;;;;;;5014335;28;20038;-86
2021/07/03 09:09:54;;;;;;;0.00;0.00;;;21.70;66.70;;;;;;5030183;28;20026;-85
2021/07/03 09:12:31;;;;;;;1.35;0.20;;;21.70;66.90;;;;;;5027758;28;20033;-85
2021/07/03 09:15:11;;;;;;;0.00;0.00;;;21.60;67.00;;;;;;5028910;28;20026;-86
2021/07/03 09:17:50;;;;;;;0.70;0.00;;;21.60;67.10;;;;;;5011698;28;20485;-85
2021/07/03 09:20:51;;;;;;;0.00;0.00;;;21.50;67.20;;;;;;5012694;28;20044;-81
2021/07/03 09:23:19;;;;;;;0.30;0.10;;;21.60;67.30;;;;;;5029373;28;20018;-85
2021/07/03 09:25:47;;;;;;;0.00;0.00;;;21.60;67.20;;;;;;5012667;28;20105;-87
2021/07/03 09:28:15;;;;;;;0.00;0.00;;;21.60;67.20;;;;;;5028590;28;20037;-84
2021/07/03 09:30:45;;;;;;;0.03;0.03;;;21.70;67.20;;;;;;5012628;28;20527;-85
2021/07/03 09:33:18;;;;;;;0.30;0.20;;;21.80;67.20;;;;;;5028979;28;20034;-85
2021/07/03 09:35:51;;;;;;;0.00;0.00;;;21.90;67.10;;;;;;5028396;28;20029;-85
2021/07/03 09:38:17;;;;;;;7.22;0.35;;;21.90;66.90;;;;;;5027981;28;20396;-85
2021/07/03 09:40:44;;;;;;;1048.43;515.00;;;22.00;66.70;;;;;;5012230;28;20402;-86
2021/07/03 09:43:10;;;;;;;0.28;0.03;;;22.10;66.70;;;;;;5013234;28;20026;-85
2021/07/03 09:45:38;;;;;;;0.20;0.00;;;22.10;66.70;;;;;;4992245;28;20034;-85
2021/07/03 09:48:06;;;;;;;0.28;0.10;;;22.10;66.70;;;;;;5011742;28;20030;-86
2021/07/03 09:50:32;;;;;;;0.15;0.10;;;22.10;66.70;;;;;;5009047;28;20524;-85
2021/07/03 09:53:01;;;;;;;0.45;0.20;;;22.10;66.70;;;;;;5001616;28;20037;-85
2021/07/03 09:55:28;;;;;;;0.20;0.10;;;22.20;66.80;;;;;;5028614;28;20018;-85
2021/07/03 09:57:54;;;;;;;0.15;0.00;;;22.20;66.70;;;;;;5028237;28;20029;-83
2021/07/03 10:00:20;;;;;;;0.05;0.00;;;22.40;66.50;;;;;;5012062;28;20026;-85
2021/07/03 10:02:46;;;;;;;0.00;0.00;;;22.60;66.20;;;;;;5008345;28;20038;-84
2021/07/03 10:05:12;;;;;;;0.00;0.00;;;22.70;65.90;;;;;;5019732;28;20057;-85
2021/07/03 10:07:45;;;;;;;0.00;0.00;;;22.90;65.70;;;;;;5011466;28;20045;-85
2021/07/03 10:10:18;;;;;;;0.25;0.00;;;23.00;65.60;;;;;;5010477;28;20050;-84
2021/07/03 10:12:48;;;;;;;1.65;0.00;;;23.10;65.40;;;;;;5012121;28;20033;-86
2021/07/03 10:15:24;;;;;;;0.93;0.20;;;23.20;65.30;;;;;;5027286;28;20021;-86
2021/07/03 10:17:50;;;;;;;0.47;0.20;;;23.30;65.20;;;;;;5007309;28;20057;-85
2021/07/03 10:20:17;;;;;;;3.85;0.17;;;23.30;65.30;;;;;;5003740;28;20033;-85
2021/07/03 10:22:53;;;;;;;0.00;0.00;;;23.30;65.40;;;;;;5028305;28;20033;-85
2021/07/03 10:25:20;;;;;;;0.10;0.00;;;23.30;65.50;;;;;;5028123;28;20025;-86
2021/07/03 10:27:56;;;;;;;0.10;0.00;;;23.30;65.50;;;;;;4992127;28;20089;-86
2021/07/03 10:30:26;;;;;;;0.00;0.00;;;23.30;65.60;;;;;;4994930;28;20064;-84
2021/07/03 10:33:06;;;;;;;0.03;0.00;;;23.30;65.60;;;;;;5027424;28;20380;-86
2021/07/03 10:35:46;;;;;;;0.40;0.10;;;23.20;65.70;;;;;;5027622;28;20097;-84
2021/07/03 10:38:29;;;;;;;0.00;0.00;;;23.20;65.90;;;;;;5026931;28;20523;-85
2021/07/03 10:41:13;;;;;;;0.05;0.00;;;23.10;65.90;;;;;;5012147;28;20030;-85
2021/07/03 10:43:47;;;;;;;0.43;0.08;;;23.10;66.00;;;;;;5027845;28;20022;-86
2021/07/03 10:46:30;;;;;;;0.17;0.17;;;23.10;66.00;;;;;;5026914;28;20044;-84
2021/07/03 10:49:01;;;;;;;0.10;0.00;;;23.20;65.90;;;;;;5008489;28;20029;-85
2021/07/03 10:51:34;;;;;;;0.10;0.00;;;23.30;65.70;;;;;;5011295;28;20030;-84
2021/07/03 10:54:24;;;;;;;0.47;0.28;;;23.30;65.60;;;;;;5007758;28;20034;-85
2021/07/03 10:57:11;;;;;;;0.20;0.10;;;23.40;65.50;;;;;;5008399;28;20030;-85
2021/07/03 10:59:38;;;;;;;0.00;0.00;;;23.70;65.10;;;;;;5025397;28;20030;-86
2021/07/03 11:02:11;;;;;;;0.00;0.00;;;24.10;64.30;;;;;;5026988;28;20030;-85
2021/07/03 11:04:49;;;;;;;0.00;0.00;;;24.30;63.80;;;;;;5012253;28;20030;-85
2021/07/03 11:07:29;;;;;;;0.05;0.00;;;24.50;63.60;;;;;;5027527;28;20481;-85
2021/07/03 11:10:09;;;;;;;0.05;0.00;;;24.50;63.40;;;;;;4992528;28;20384;-84
2021/07/03 11:12:53;;;;;;;0.30;0.00;;;24.60;63.40;;;;;;5010032;28;20030;-85
2021/07/03 11:15:29;;;;;;;0.20;0.00;;;24.60;63.40;;;;;;5012508;28;20065;-85
2021/07/03 11:17:56;;;;;;;0.03;0.00;;;24.50;63.40;;;;;;5012101;28;20022;-85
2021/07/03 11:20:26;;;;;;;0.00;0.00;;;24.40;63.70;;;;;;5007364;28;20034;-85
2021/07/03 11:22:53;;;;;;;0.00;0.00;;;24.30;63.80;;;;;;5019466;28;20018;-83
2021/07/03 11:25:29;;;;;;;2.72;0.43;;;24.40;64.00;;;;;;5031133;28;20033;-86
2021/07/03 11:28:16;;;;;;;0.88;0.15;;;24.60;63.70;;;;;;5011785;28;20038;-86
2021/07/03 11:30:47;;;;;;;0.03;0.00;;;24.90;63.00;;;;;;5014732;28;20508;-85
2021/07/03 11:33:14;;;;;;;0.00;0.00;;;25.20;62.80;;;;;;5030709;28;20030;-82
2021/07/03 11:35:50;;;;;;;0.52;0.20;;;25.40;62.30;;;;;;5030977;28;20052;-84
2021/07/03 11:38:18;;;;;;;0.05;0.00;;;25.70;61.90;;;;;;5030777;28;20386;-85
2021/07/03 11:40:45;;;;;;;0.10;0.00;;;25.70;61.50;;;;;;5014614;28;20049;-85
2021/07/03 11:43:11;;;;;;;0.57;0.00;;;25.70;61.60;;;;;;5031149;28;20033;-85
2021/07/03 11:45:38;;;;;;;0.00;0.00;;;25.80;61.60;;;;;;5014545;28;20038;-86
2021/07/03 11:48:07;;;;;;;0.00;0.00;;;26.00;61.40;;;;;;5010879;28;20375;-85
2021/07/03 11:50:56;;;;;;;0.00;0.00;;;26.20;60.90;;;;;;5024808;28;20029;-84
2021/07/03 11:53:23;;;;;;;0.00;0.00;;;26.40;60.60;;;;;;5015222;28;20026;-87
2021/07/03 11:55:51;;;;;;;0.00;0.00;;;26.30;60.40;;;;;;5014262;28;20411;-85
2021/07/03 11:58:20;;;;;;;0.00;0.00;;;26.30;60.50;;;;;;5015593;28;20030;-86
2021/07/03 12:00:50;;;;;;;0.00;0.00;;;26.10;60.70;;;;;;5014393;28;20045;-84
2021/07/03 12:03:18;;;;;;;0.00;0.00;;;26.10;60.80;;;;;;5030793;28;20357;-86
2021/07/03 12:05:48;;;;;;;0.00;0.00;;;26.20;60.60;;;;;;5013860;28;20033;-86
2021/07/03 12:08:14;;;;;;;0.20;0.20;;;26.30;60.50;;;;;;5029556;28;20048;-85
2021/07/03 12:10:45;;;;;;;0.00;0.00;;;26.50;60.20;;;;;;5014340;28;20041;-85
2021/07/03 12:13:24;;;;;;;0.20;0.05;;;26.70;59.80;;;;;;5030063;28;20034;-84
2021/07/03 12:16:07;;;;;;;2.35;0.08;;;27.00;59.40;;;;;;5010349;28;20046;-86
2021/07/03 12:18:37;;;;;;;0.10;0.00;;;27.10;59.30;;;;;;5012713;28;20038;-86
2021/07/03 12:21:04;;;;;;;0.00;0.00;;;27.00;59.20;;;;;;5010598;28;20035;-85
2021/07/03 12:23:30;;;;;;;0.00;0.00;;;27.10;59.10;;;;;;5008150;28;20422;-86
2021/07/03 12:25:56;;;;;;;0.00;0.00;;;27.10;59.00;;;;;;5030269;28;20022;-86
2021/07/03 12:28:22;;;;;;;0.00;0.00;;;27.10;59.10;;;;;;5030352;28;20041;-86
2021/07/03 12:30:48;;;;;;;0.10;0.00;;;27.10;59.00;;;;;;5030192;28;20045;-86
2021/07/03 12:33:15;;;;;;;0.22;0.00;;;27.10;58.80;;;;;;5009543;28;20065;-86
2021/07/03 12:35:43;;;;;;;0.00;0.00;;;27.10;58.80;;;;;;5025376;28;20412;-85
2021/07/03 12:38:10;;;;;;;0.32;0.00;;;27.10;58.80;;;;;;5014613;28;20037;-86
2021/07/03 12:40:43;;;;;;;0.00;0.00;;;27.00;58.70;;;;;;5030048;28;20025;-86
2021/07/03 12:43:10;;;;;;;0.00;0.00;;;27.00;58.80;;;;;;5030018;28;20384;-83
2021/07/03 12:45:36;;;;;;;0.00;0.00;;;26.90;58.80;;;;;;5013776;28;20022;-86